KXF weather

Koro Island Airport
Koro Island, Eastern, Fiji

Public forecast

Using degrees Celsius for public forecast. Weather courtesy of forecast.io.

METAR (pilot weather report)

Report is more than 6 hours old.

Closest report is Savusavu Airport, 32.9 nm (61.0 km) N. Retrieved 2019/07/13 03:00 UTC (7 days ago):

NFNS 130300Z 11015KT 9999 FEW025 26/21 Q1012

TAF (pilot weather forecast)

Forecast is more than 12 hours old.

Closest forecast is Nausori International Airport, 64.7 nm (119.9 km) SW. Retrieved 2019/07/19 00:00 UTC (1 day ago):

TAF NFNA 192312Z 2000/2024 06006KT 9999 -SHRA SCT018 SCT048 TEMPO 2000/2012 2000 +TSRA BKN012 FEW017CB TEMPO 2012/2024 3000 TSRA BKN015 FEW016CB